createdAt,value
2018-02-06T00:00:00.392Z,3.53
2018-02-06T00:02:03.761Z,3.63
2018-02-06T00:04:07.185Z,3.40
2018-02-06T00:06:10.557Z,3.97
2018-02-06T00:08:13.939Z,3.20
2018-02-06T00:10:17.339Z,3.50
2018-02-06T00:12:20.725Z,3.37
2018-02-06T00:14:24.126Z,3.33
2018-02-06T00:16:27.494Z,3.70
2018-02-06T00:18:30.914Z,3.83
2018-02-06T00:20:34.361Z,3.30
2018-02-06T00:22:49.239Z,3.07
2018-02-06T00:24:52.699Z,4.30
2018-02-06T00:26:56.092Z,3.30
2018-02-06T00:28:59.472Z,3.23
2018-02-06T00:31:02.840Z,3.73
2018-02-06T00:33:06.244Z,3.00
2018-02-06T00:35:09.673Z,3.73
2018-02-06T00:37:13.047Z,3.37
2018-02-06T00:39:16.422Z,3.37
2018-02-06T00:41:19.814Z,4.23
2018-02-06T00:43:23.204Z,3.83
2018-02-06T00:45:26.701Z,3.40
2018-02-06T00:47:30.094Z,4.17
2018-02-06T00:49:34.270Z,3.77
2018-02-06T00:51:37.651Z,3.30
2018-02-06T00:53:41.794Z,3.90
2018-02-06T00:55:45.308Z,4.97
2018-02-06T00:57:49.546Z,3.63
2018-02-06T00:59:52.932Z,2.97
2018-02-06T01:01:56.330Z,4.00
2018-02-06T01:03:59.990Z,3.63
2018-02-06T01:06:03.576Z,3.77
2018-02-06T01:08:06.979Z,4.30
2018-02-06T01:10:10.381Z,4.10
2018-02-06T01:12:13.776Z,3.50
2018-02-06T01:14:17.400Z,3.70
2018-02-06T01:16:20.838Z,3.67
2018-02-06T01:18:24.230Z,3.53
2018-02-06T01:20:27.607Z,3.47
2018-02-06T01:22:31.748Z,4.03
2018-02-06T01:24:35.164Z,3.97
2018-02-06T01:26:38.562Z,3.40
2018-02-06T01:28:41.955Z,4.47
2018-02-06T01:30:45.373Z,3.50
2018-02-06T01:32:49.505Z,3.83
2018-02-06T01:34:52.874Z,3.43
2018-02-06T01:36:57.036Z,3.50
2018-02-06T01:39:00.436Z,3.73
2018-02-06T01:41:03.834Z,3.30
2018-02-06T01:43:07.189Z,3.93
2018-02-06T01:45:10.563Z,4.00
2018-02-06T01:47:14.724Z,3.90
2018-02-06T01:49:18.090Z,3.50
2018-02-06T01:51:21.484Z,3.90
2018-02-06T01:53:24.886Z,3.70
2018-02-06T01:55:28.254Z,4.10
2018-02-06T01:57:31.635Z,3.83
2018-02-06T01:59:35.775Z,4.23
2018-02-06T02:01:39.192Z,4.50
2018-02-06T02:03:42.597Z,4.10
2018-02-06T02:05:45.966Z,4.00
2018-02-06T02:07:49.333Z,4.40
2018-02-06T02:09:52.708Z,3.47
2018-02-06T02:11:56.891Z,4.17
2018-02-06T02:14:00.328Z,3.97
2018-02-06T02:16:03.724Z,3.70
2018-02-06T02:18:07.173Z,4.10
2018-02-06T02:20:10.538Z,5.27
2018-02-06T02:22:13.946Z,4.43
2018-02-06T02:24:17.342Z,4.37
2018-02-06T02:26:20.719Z,3.90
2018-02-06T02:28:24.113Z,4.63
2018-02-06T02:30:27.469Z,4.37
2018-02-06T02:32:30.895Z,3.90
2018-02-06T02:34:34.284Z,4.10
2018-02-06T02:36:37.254Z,4.07
2018-02-06T02:38:40.630Z,4.23
2018-02-06T02:40:44.018Z,4.43
2018-02-06T04:40:09.201Z,3.87
2018-02-06T04:42:12.603Z,4.77
2018-02-06T04:44:15.970Z,4.23
2018-02-06T04:46:19.339Z,4.30
2018-02-06T04:48:22.806Z,3.97
2018-02-06T04:50:26.177Z,4.27
2018-02-06T04:52:29.616Z,4.70
2018-02-06T04:54:32.997Z,4.60
2018-02-06T04:56:36.351Z,4.77
2018-02-06T04:58:39.724Z,4.10
2018-02-06T05:00:43.087Z,4.67
2018-02-06T05:02:46.590Z,4.83
2018-02-06T05:04:50.026Z,4.13
2018-02-06T05:06:53.408Z,4.67
2018-02-06T05:08:56.781Z,4.20
2018-02-06T05:11:00.141Z,4.43
2018-02-06T05:13:04.355Z,4.83
2018-02-06T05:15:08.490Z,4.83
2018-02-06T05:17:11.853Z,4.03
2018-02-06T05:19:15.986Z,4.07
2018-02-06T05:21:19.416Z,4.87
2018-02-06T05:23:22.920Z,4.50
2018-02-06T05:25:26.293Z,4.87
2018-02-06T05:27:29.676Z,4.30
2018-02-06T05:29:33.081Z,4.17
2018-02-06T05:31:36.481Z,4.37
2018-02-06T05:33:39.851Z,4.40
2018-02-06T05:35:43.247Z,7.73
2018-02-06T05:37:46.608Z,3.63
2018-02-06T05:39:50.013Z,4.47
2018-02-06T05:41:53.393Z,5.57
2018-02-06T05:43:56.812Z,4.20
2018-02-06T05:46:00.188Z,4.57
2018-02-06T05:48:03.573Z,4.37
2018-02-06T05:50:06.961Z,4.37
2018-02-06T05:52:11.093Z,4.30
2018-02-06T05:54:14.485Z,4.07
2018-02-06T05:56:17.855Z,5.43
2018-02-06T05:58:21.249Z,4.73
2018-02-06T06:00:24.619Z,4.90
2018-02-06T06:02:28.771Z,5.33
2018-02-06T06:04:32.184Z,5.27
2018-02-06T06:06:35.592Z,4.73
2018-02-06T06:08:38.996Z,4.20
2018-02-06T06:10:42.372Z,4.90
2018-02-06T06:12:45.776Z,4.23
2018-02-06T06:14:49.191Z,4.40
2018-02-06T06:16:53.324Z,4.63
2018-02-06T06:18:56.711Z,4.80
2018-02-06T06:21:00.095Z,4.50
2018-02-06T06:23:03.515Z,4.30
2018-02-06T06:25:06.919Z,4.90
2018-02-06T06:27:10.301Z,4.27
2018-02-06T06:29:13.717Z,4.03
2018-02-06T06:31:17.113Z,4.50
2018-02-06T06:33:20.479Z,3.90
2018-02-06T06:35:23.869Z,4.17
2018-02-06T06:37:27.245Z,4.10
2018-02-06T06:39:30.626Z,4.63
2018-02-06T06:41:34.762Z,4.30
2018-02-06T06:43:38.130Z,4.83
2018-02-06T06:45:42.274Z,4.90
2018-02-06T06:47:45.663Z,5.40
2018-02-06T06:49:49.060Z,3.80
2018-02-06T06:51:52.437Z,4.37
2018-02-06T06:53:55.837Z,4.17
2018-02-06T06:55:59.242Z,4.37
2018-02-06T06:58:02.633Z,4.60
2018-02-06T07:00:06.005Z,3.83
2018-02-06T07:02:09.389Z,4.63
2018-02-06T07:04:12.808Z,4.20
2018-02-06T07:06:17.100Z,4.27
2018-02-06T07:08:20.473Z,5.30
2018-02-06T07:10:24.039Z,4.37
2018-02-06T07:12:27.450Z,5.23
2018-02-06T07:14:31.579Z,4.57
2018-02-06T07:16:35.766Z,4.20
2018-02-06T07:18:39.907Z,4.47
2018-02-06T07:20:43.256Z,5.07
2018-02-06T07:22:46.627Z,4.50
2018-02-06T07:24:49.996Z,4.30
2018-02-06T07:26:53.429Z,4.03
2018-02-06T07:28:56.813Z,5.83
2018-02-06T07:31:00.206Z,5.10
2018-02-06T07:33:03.596Z,4.70
2018-02-06T07:35:06.990Z,4.20
2018-02-06T07:37:10.385Z,4.90
2018-02-06T07:39:14.542Z,5.00
2018-02-06T07:41:17.971Z,4.80
2018-02-06T07:43:21.354Z,4.13
2018-02-06T07:45:24.735Z,4.77
2018-02-06T07:47:28.136Z,5.07
2018-02-06T07:49:31.509Z,5.07
2018-02-06T07:51:34.892Z,5.93
2018-02-06T07:53:38.298Z,4.90
2018-02-06T07:55:41.677Z,5.43
2018-02-06T07:57:45.074Z,4.40
2018-02-06T07:59:48.471Z,5.87
2018-02-06T08:01:51.860Z,5.37
2018-02-06T08:03:55.269Z,5.07
2018-02-06T08:05:58.636Z,4.87
2018-02-06T08:08:02.028Z,5.40
2018-02-06T08:10:05.160Z,5.30
2018-02-06T08:12:08.516Z,5.23
2018-02-06T08:14:11.934Z,5.03
2018-02-06T08:16:15.912Z,5.13
2018-02-06T08:18:19.293Z,5.40
2018-02-06T08:20:23.436Z,4.77
2018-02-06T08:22:26.853Z,5.93
2018-02-06T08:24:30.227Z,5.93
2018-02-06T08:26:33.600Z,5.37
2018-02-06T08:28:36.978Z,5.03
2018-02-06T08:30:40.411Z,4.70
2018-02-06T08:32:43.801Z,4.57
2018-02-06T08:34:47.169Z,5.73
2018-02-06T08:36:50.566Z,4.67
2018-02-06T08:38:53.986Z,4.80
2018-02-06T08:40:57.386Z,5.47
2018-02-06T08:43:00.765Z,5.10
2018-02-06T08:45:03.936Z,5.40
2018-02-06T08:47:07.468Z,7.83
2018-02-06T08:49:10.993Z,5.83
2018-02-06T08:51:15.006Z,5.30
2018-02-06T08:53:18.531Z,5.30
2018-02-06T08:55:22.110Z,4.93
2018-02-06T08:57:25.627Z,4.73
2018-02-06T08:59:29.189Z,6.30
2018-02-06T09:01:32.724Z,4.63
2018-02-06T09:03:36.252Z,5.07
2018-02-06T09:05:39.802Z,5.23
2018-02-06T09:07:43.544Z,6.60
2018-02-06T09:09:48.004Z,4.90
2018-02-06T09:11:51.655Z,5.40
2018-02-06T09:13:55.294Z,5.97
2018-02-06T09:15:58.696Z,5.40
2018-02-06T09:18:03.308Z,5.93
2018-02-06T09:20:06.850Z,5.10
2018-02-06T09:22:10.405Z,5.33
2018-02-06T09:24:13.987Z,6.27
2018-02-06T09:26:18.267Z,4.47
2018-02-06T09:28:22.610Z,4.80
2018-02-06T09:30:26.907Z,5.23
2018-02-06T09:32:30.479Z,5.93
2018-02-06T09:34:34.093Z,4.97
2018-02-06T09:36:37.503Z,6.07
2018-02-06T09:38:40.872Z,5.10
2018-02-06T09:40:44.284Z,5.30
2018-02-06T09:42:48.050Z,5.97
2018-02-06T09:44:51.569Z,5.63
2018-02-06T09:46:55.051Z,5.43
2018-02-06T09:48:58.600Z,5.47
2018-02-06T09:51:02.891Z,5.53
2018-02-06T09:53:07.230Z,4.90
2018-02-06T09:55:10.807Z,5.53
2018-02-06T09:57:15.231Z,5.40
2018-02-06T09:59:18.686Z,5.70
2018-02-06T10:01:22.158Z,5.73
2018-02-06T10:03:25.580Z,5.97
2018-02-06T10:05:28.966Z,5.03
2018-02-06T10:07:32.350Z,4.83
2018-02-06T10:09:35.828Z,5.10
2018-02-06T10:11:39.205Z,4.93
2018-02-06T10:13:42.625Z,5.67
2018-02-06T10:15:46.005Z,6.07
2018-02-06T10:17:49.431Z,4.90
2018-02-06T10:19:52.828Z,5.97
2018-02-06T10:21:56.208Z,5.57
2018-02-06T10:23:59.616Z,6.17
2018-02-06T10:26:02.997Z,5.47
2018-02-06T10:28:06.619Z,5.93
2018-02-06T10:30:10.766Z,4.93
2018-02-06T10:32:14.150Z,5.10
2018-02-06T10:34:17.551Z,5.30
2018-02-06T10:36:20.991Z,5.47
2018-02-06T10:38:24.365Z,6.13
2018-02-06T10:40:27.753Z,5.40
2018-02-06T10:42:31.350Z,7.33
2018-02-06T10:44:34.741Z,6.80
2018-02-06T10:46:38.175Z,5.80
2018-02-06T10:48:41.818Z,6.23
2018-02-06T10:50:45.187Z,5.53
2018-02-06T10:52:48.844Z,5.87
2018-02-06T10:54:52.242Z,4.87
2018-02-06T10:56:55.624Z,5.10
2018-02-06T10:58:59.034Z,5.50
2018-02-06T11:01:02.459Z,6.20
2018-02-06T11:03:05.892Z,6.57
2018-02-06T11:05:09.261Z,5.47
2018-02-06T11:07:13.285Z,5.57
2018-02-06T11:09:16.676Z,4.93
2018-02-06T11:11:20.057Z,5.80
2018-02-06T11:13:23.506Z,5.30
2018-02-06T11:15:26.901Z,5.00
2018-02-06T11:17:31.228Z,5.70
2018-02-06T11:19:34.609Z,6.13
2018-02-06T11:21:38.103Z,5.13
2018-02-06T11:23:42.046Z,5.87
2018-02-06T11:25:45.429Z,6.30
2018-02-06T11:27:48.795Z,6.07
2018-02-06T11:29:52.986Z,6.37
2018-02-06T11:31:57.278Z,5.23
2018-02-06T11:34:00.737Z,5.70
2018-02-06T11:36:04.178Z,7.20
2018-02-06T11:38:07.664Z,5.10
2018-02-06T11:40:11.145Z,5.10
2018-02-06T11:42:14.778Z,5.40
2018-02-06T11:44:18.396Z,5.97
2018-02-06T11:46:21.848Z,5.50
2018-02-06T11:48:25.385Z,5.37
2018-02-06T11:50:29.673Z,5.73
2018-02-06T11:52:33.472Z,5.17
2018-02-06T11:54:37.088Z,5.13
2018-02-06T11:56:41.327Z,6.13
2018-02-06T11:58:45.031Z,6.50
2018-02-06T12:00:48.652Z,6.17
2018-02-06T12:02:52.084Z,5.60
2018-02-06T12:04:55.618Z,5.47
2018-02-06T12:06:59.239Z,6.00
2018-02-06T12:09:02.776Z,5.90
2018-02-06T12:11:06.654Z,5.60
2018-02-06T12:13:10.116Z,5.57
2018-02-06T12:15:13.628Z,5.17
2018-02-06T12:17:17.042Z,5.60
2018-02-06T12:19:20.522Z,5.80
2018-02-06T12:21:24.058Z,6.23
2018-02-06T12:23:27.803Z,5.80
2018-02-06T12:25:32.127Z,5.73
2018-02-06T12:27:35.647Z,4.93
2018-02-06T12:29:39.926Z,5.67
2018-02-06T12:31:43.462Z,5.57
2018-02-06T12:33:46.925Z,6.47
2018-02-06T12:35:50.371Z,5.23
2018-02-06T12:37:53.922Z,5.40
2018-02-06T12:39:57.407Z,5.37
2018-02-06T12:42:00.785Z,5.70
2018-02-06T12:44:04.292Z,6.83
2018-02-06T12:46:07.753Z,5.67
2018-02-06T12:48:11.982Z,6.63
2018-02-06T12:50:15.551Z,5.47
2018-02-06T12:52:19.036Z,5.73
2018-02-06T12:54:22.666Z,6.23
2018-02-06T12:56:26.117Z,6.17
2018-02-06T12:58:29.590Z,5.97
2018-02-06T13:00:33.141Z,5.40
2018-02-06T13:02:36.576Z,5.80
2018-02-06T13:04:40.019Z,5.90
2018-02-06T13:06:44.373Z,6.50
2018-02-06T13:08:49.896Z,5.93
2018-02-06T13:10:53.434Z,5.40
2018-02-06T13:12:56.955Z,5.23
2018-02-06T13:15:01.251Z,6.10
2018-02-06T13:17:06.305Z,6.00
2018-02-06T13:19:10.585Z,5.80
2018-02-06T13:21:14.025Z,6.33
2018-02-06T13:23:17.498Z,5.33
2018-02-06T13:25:20.927Z,6.20
2018-02-06T13:27:24.455Z,5.33
2018-02-06T13:29:27.964Z,5.43
2018-02-06T13:31:31.471Z,5.33
2018-02-06T13:33:35.023Z,5.50
2018-02-06T13:35:38.474Z,7.23
2018-02-06T13:37:42.357Z,5.03
2018-02-06T13:39:45.824Z,5.70
2018-02-06T13:41:49.370Z,6.70
2018-02-06T13:43:53.665Z,6.33
2018-02-06T13:45:57.975Z,6.27
2018-02-06T13:48:01.437Z,6.77
2018-02-06T13:50:04.935Z,6.53
2018-02-06T13:52:08.534Z,6.10
2018-02-06T13:54:12.054Z,5.13
2018-02-06T13:56:15.623Z,5.23
2018-02-06T13:58:19.125Z,5.00
2018-02-06T14:00:22.718Z,5.77
2018-02-06T14:02:26.211Z,5.60
2018-02-06T14:04:29.741Z,5.87
2018-02-06T14:06:33.370Z,5.70
2018-02-06T14:08:36.860Z,8.57
2018-02-06T14:10:41.107Z,5.40
2018-02-06T14:12:44.655Z,5.77
2018-02-06T14:14:49.086Z,5.80
2018-02-06T14:16:53.280Z,10.73
2018-02-06T14:18:57.100Z,6.30
2018-02-06T14:21:00.675Z,5.07
2018-02-06T14:23:04.166Z,5.47
2018-02-06T14:25:07.995Z,6.63
2018-02-06T14:27:11.670Z,6.37
2018-02-06T14:29:15.985Z,6.90
2018-02-06T14:31:20.339Z,5.40
2018-02-06T14:33:23.954Z,5.60
2018-02-06T14:35:27.444Z,6.40
2018-02-06T14:37:31.415Z,5.87
2018-02-06T14:39:34.886Z,6.37
2018-02-06T14:41:38.424Z,5.30
2018-02-06T14:43:41.999Z,6.33
2018-02-06T14:45:46.378Z,5.33
2018-02-06T14:47:50.040Z,5.73
2018-02-06T14:49:53.949Z,5.30
2018-02-06T14:51:57.499Z,5.43
2018-02-06T14:54:01.049Z,4.93
2018-02-06T14:56:04.526Z,5.30
2018-02-06T14:58:08.085Z,5.40
2018-02-06T15:00:11.689Z,6.77
2018-02-06T15:02:16.207Z,5.20
2018-02-06T15:04:20.436Z,5.30
2018-02-06T15:06:24.124Z,5.60
2018-02-06T15:08:27.797Z,6.17
2018-02-06T15:10:31.199Z,5.33
2018-02-06T15:12:34.686Z,5.60
2018-02-06T15:14:38.880Z,5.37
2018-02-06T15:16:42.228Z,5.10
2018-02-06T15:18:45.648Z,5.47
2018-02-06T15:20:49.086Z,5.30
2018-02-06T15:22:52.534Z,5.27
2018-02-06T15:24:55.968Z,5.03
2018-02-06T15:26:59.390Z,5.83
2018-02-06T15:29:03.600Z,4.80
2018-02-06T15:31:07.743Z,6.80
2018-02-06T15:33:11.217Z,5.00
2018-02-06T15:35:14.613Z,5.30
2018-02-06T15:37:18.013Z,5.13
2018-02-06T15:39:21.470Z,5.90
2018-02-06T15:41:24.872Z,5.40
2018-02-06T15:43:29.013Z,5.47
2018-02-06T15:45:32.442Z,5.33
2018-02-06T15:47:35.919Z,5.37
2018-02-06T15:49:40.129Z,5.83
2018-02-06T15:51:43.542Z,4.97
2018-02-06T15:53:47.112Z,6.30
2018-02-06T15:55:50.692Z,5.80
2018-02-06T15:57:54.170Z,6.67
2018-02-06T15:59:58.366Z,5.23
2018-02-06T16:02:02.162Z,5.83
2018-02-06T16:04:05.589Z,5.87
2018-02-06T16:06:09.013Z,5.57
2018-02-06T16:08:12.709Z,6.10
2018-02-06T16:10:16.621Z,6.40
2018-02-06T16:12:20.554Z,5.97
2018-02-06T16:14:23.967Z,5.80
2018-02-06T16:16:27.387Z,6.33
2018-02-06T16:18:31.714Z,5.50
2018-02-06T16:20:35.274Z,6.67
2018-02-06T16:22:38.679Z,5.83
2018-02-06T16:24:42.061Z,6.17
2018-02-06T16:26:46.106Z,5.23
2018-02-06T16:28:49.658Z,5.57
2018-02-06T16:30:53.793Z,7.37
2018-02-06T16:32:57.856Z,5.83
2018-02-06T16:35:01.384Z,5.23
2018-02-06T16:37:04.807Z,4.93
2018-02-06T16:39:08.188Z,5.90
2018-02-06T16:41:11.571Z,6.50
2018-02-06T16:43:14.964Z,5.80
2018-02-06T16:45:18.357Z,5.53
2018-02-06T16:47:21.780Z,5.20
2018-02-06T16:49:26.274Z,5.83
2018-02-06T16:51:29.791Z,5.90
2018-02-06T16:53:33.390Z,5.77
2018-02-06T16:55:36.803Z,8.50
2018-02-06T16:57:40.216Z,6.00
2018-02-06T16:59:44.371Z,8.90
2018-02-06T17:01:47.777Z,5.80
2018-02-06T17:03:51.145Z,5.87
2018-02-06T17:05:54.535Z,6.53
2018-02-06T17:07:58.233Z,6.43
2018-02-06T17:10:01.631Z,7.03
2018-02-06T17:12:05.059Z,6.23
2018-02-06T17:14:08.568Z,9.00
2018-02-06T17:16:12.723Z,5.23
2018-02-06T17:18:15.932Z,6.80
2018-02-06T17:20:19.319Z,6.53
2018-02-06T17:22:22.685Z,7.50
2018-02-06T17:24:26.255Z,6.73
2018-02-06T17:26:29.510Z,5.77
2018-02-06T17:28:32.934Z,6.70
2018-02-06T17:30:36.297Z,5.40
2018-02-06T17:32:39.645Z,6.67
2018-02-06T17:34:43.131Z,6.17
2018-02-06T17:36:46.671Z,8.17
2018-02-06T17:38:50.041Z,5.90
2018-02-06T17:40:53.444Z,6.13
2018-02-06T17:42:56.898Z,6.80
2018-02-06T17:45:00.417Z,5.67
2018-02-06T17:47:03.859Z,5.97
2018-02-06T17:49:07.306Z,6.57
2018-02-06T17:51:10.808Z,6.23
2018-02-06T17:53:14.255Z,6.30
2018-02-06T17:55:17.719Z,5.90
2018-02-06T17:57:21.128Z,5.70
2018-02-06T17:59:24.509Z,5.80
2018-02-06T18:01:27.928Z,6.00
2018-02-06T18:03:31.335Z,7.00
2018-02-06T18:05:34.727Z,5.73
2018-02-06T18:07:38.142Z,6.93
2018-02-06T18:09:41.323Z,6.43
2018-02-06T18:11:44.742Z,8.23
2018-02-06T18:13:48.214Z,6.77
2018-02-06T18:15:51.645Z,5.37
2018-02-06T18:17:55.022Z,5.37
2018-02-06T18:19:58.968Z,5.10
2018-02-06T18:22:02.407Z,7.80
2018-02-06T18:24:05.776Z,5.87
2018-02-06T18:26:09.510Z,6.67
2018-02-06T18:28:12.963Z,6.10
2018-02-06T18:30:16.952Z,5.83
2018-02-06T18:32:20.381Z,8.20
2018-02-06T18:34:23.835Z,8.10
2018-02-06T18:36:28.036Z,5.63
2018-02-06T18:38:31.461Z,6.30
2018-02-06T18:40:35.653Z,6.43
2018-02-06T18:42:39.256Z,6.40
2018-02-06T18:44:42.782Z,7.53
2018-02-06T18:46:46.554Z,6.83
2018-02-06T18:48:51.063Z,6.30
2018-02-06T18:50:54.921Z,7.23
2018-02-06T18:52:58.571Z,8.50
2018-02-06T18:55:01.981Z,6.17
2018-02-06T18:57:05.398Z,7.37
2018-02-06T18:59:08.863Z,8.47
2018-02-06T19:01:12.427Z,6.27
2018-02-06T19:03:15.679Z,6.23
2018-02-06T19:05:19.051Z,5.23
2018-02-06T19:07:22.697Z,7.40
2018-02-06T19:09:26.111Z,7.70
2018-02-06T19:11:29.475Z,5.27
2018-02-06T19:13:32.884Z,7.30
2018-02-06T19:15:36.903Z,6.60
2018-02-06T19:17:40.279Z,6.97
2018-02-06T19:19:43.671Z,5.60
2018-02-06T19:21:47.079Z,6.40
2018-02-06T19:23:50.463Z,5.90
2018-02-06T19:25:54.493Z,5.73
2018-02-06T19:27:58.618Z,5.63
2018-02-06T19:30:02.946Z,6.10
2018-02-06T19:32:06.702Z,7.17
2018-02-06T19:34:10.686Z,5.83
2018-02-06T19:36:15.094Z,6.87
2018-02-06T19:38:18.448Z,6.20
2018-02-06T19:40:22.599Z,6.50
2018-02-06T19:42:25.972Z,6.30
2018-02-06T19:44:29.524Z,7.23
2018-02-06T19:46:33.042Z,7.40
2018-02-06T19:48:37.278Z,7.63
2018-02-06T19:50:40.654Z,6.10
2018-02-06T19:52:44.127Z,7.30
2018-02-06T19:54:48.330Z,8.13
2018-02-06T19:56:51.684Z,8.13
2018-02-06T19:58:54.881Z,6.73
2018-02-06T20:00:58.260Z,8.07
2018-02-06T20:03:02.370Z,8.83
2018-02-06T20:05:05.842Z,6.47
2018-02-06T20:07:09.406Z,6.90
2018-02-06T20:09:13.287Z,6.20
2018-02-06T20:11:16.795Z,6.90
2018-02-06T20:13:20.244Z,6.67
2018-02-06T20:15:24.480Z,7.03
2018-02-06T20:17:28.086Z,7.73
2018-02-06T20:19:32.426Z,8.20
2018-02-06T20:21:36.978Z,6.30
2018-02-06T20:23:40.331Z,7.07
2018-02-06T20:25:44.883Z,7.33
2018-02-06T20:27:48.416Z,6.47
2018-02-06T20:29:51.812Z,6.53
2018-02-06T20:31:55.199Z,6.43
2018-02-06T20:33:58.582Z,6.70
2018-02-06T20:36:01.998Z,6.77
2018-02-06T20:38:06.065Z,7.83
2018-02-06T20:40:11.068Z,6.60
2018-02-06T20:42:14.458Z,6.83
2018-02-06T20:44:20.012Z,6.57
2018-02-06T20:46:23.642Z,7.03
2018-02-06T20:48:28.119Z,6.63
2018-02-06T20:50:31.629Z,6.83
2018-02-06T20:52:36.728Z,6.67
2018-02-06T20:54:40.633Z,6.93
2018-02-06T20:56:45.298Z,7.77
2018-02-06T20:58:50.793Z,7.70
2018-02-06T21:00:55.355Z,6.07
2018-02-06T21:02:58.772Z,6.27
2018-02-06T21:05:02.180Z,5.80
2018-02-06T21:07:05.625Z,7.83
2018-02-06T21:09:09.683Z,6.77
2018-02-06T21:11:13.236Z,6.80
2018-02-06T21:13:16.599Z,7.37
2018-02-06T21:15:20.767Z,6.77
2018-02-06T21:17:24.175Z,7.47
2018-02-06T21:19:27.575Z,6.90
2018-02-06T21:21:31.021Z,7.10
2018-02-06T21:23:34.409Z,7.33
2018-02-06T21:25:37.786Z,6.10
2018-02-06T21:27:42.322Z,6.80
2018-02-06T21:29:45.697Z,6.87
2018-02-06T21:31:49.897Z,7.10
2018-02-06T21:33:54.050Z,6.40
2018-02-06T21:35:57.512Z,7.20
2018-02-06T21:38:00.906Z,6.80
2018-02-06T21:40:05.041Z,7.83
2018-02-06T21:42:08.466Z,6.63
2018-02-06T21:44:11.841Z,6.37
2018-02-06T21:46:15.252Z,6.20
2018-02-06T21:48:18.709Z,6.47
2018-02-06T21:50:22.196Z,7.43
2018-02-06T21:52:25.756Z,6.37
2018-02-06T21:54:29.157Z,6.70
2018-02-06T21:56:33.295Z,7.20
2018-02-06T21:58:36.786Z,7.13
2018-02-06T22:00:40.221Z,6.60
2018-02-06T22:02:43.595Z,6.90
2018-02-06T22:04:46.978Z,7.30
2018-02-06T22:06:50.370Z,7.77
2018-02-06T22:08:53.800Z,7.27
2018-02-06T22:10:57.170Z,7.20
2018-02-06T22:13:00.549Z,7.13
2018-02-06T22:15:03.919Z,6.73
2018-02-06T22:17:07.283Z,6.80
2018-02-06T22:19:10.889Z,6.67
2018-02-06T22:21:14.251Z,7.50
2018-02-06T22:23:17.618Z,6.70
2018-02-06T22:25:21.005Z,7.00
2018-02-06T22:27:24.364Z,7.47
2018-02-06T22:29:28.600Z,8.53
2018-02-06T22:31:31.989Z,7.67
2018-02-06T22:33:35.378Z,7.00
2018-02-06T22:35:38.743Z,8.70
2018-02-06T22:37:41.968Z,7.10
2018-02-06T22:39:45.533Z,7.20
2018-02-06T22:41:49.663Z,7.83
2018-02-06T22:43:53.068Z,7.47
2018-02-06T22:45:56.462Z,7.47
2018-02-06T22:47:59.841Z,7.10
2018-02-06T22:50:03.064Z,8.37
2018-02-06T22:52:06.514Z,8.23
2018-02-06T22:54:10.640Z,9.17
2018-02-06T22:56:14.002Z,7.83
2018-02-06T22:58:18.175Z,7.83
2018-02-06T23:00:24.087Z,7.47
2018-02-06T23:02:27.479Z,7.57
2018-02-06T23:04:30.858Z,7.10
2018-02-06T23:06:35.026Z,7.10
2018-02-06T23:08:38.433Z,7.57
2018-02-06T23:10:41.853Z,8.00
2018-02-06T23:12:45.993Z,7.60
2018-02-06T23:14:49.364Z,7.40
2018-02-06T23:16:52.772Z,6.67
2018-02-06T23:18:56.147Z,8.03
2018-02-06T23:21:00.381Z,7.30
2018-02-06T23:23:03.770Z,7.53
2018-02-06T23:25:07.141Z,7.10
2018-02-06T23:27:11.316Z,8.80
2018-02-06T23:29:14.719Z,7.80
2018-02-06T23:31:18.136Z,6.73
2018-02-06T23:33:22.254Z,8.07
2018-02-06T23:35:25.652Z,7.33
2018-02-06T23:37:29.060Z,7.93
2018-02-06T23:39:32.448Z,7.80
2018-02-06T23:41:35.832Z,7.30
2018-02-06T23:43:39.192Z,8.57
2018-02-06T23:45:43.362Z,8.17
2018-02-06T23:47:46.752Z,7.37
2018-02-06T23:49:50.118Z,7.30
2018-02-06T23:51:53.488Z,7.97
2018-02-06T23:53:56.980Z,7.23
2018-02-06T23:56:01.111Z,7.43
2018-02-06T23:58:04.772Z,7.63
